Time;durP1;ratioP1;P1;durP2;ratioP2;P2;SDS_P1;SDS_P2;PMS_P1;PMS_P2;Temp;Humidity;BMP_temperature;BMP_pressure;BME280_temperature;BME280_humidity;BME280_pressure;Samples;Min_cycle;Max_cycle;Signal;HPM_P1;HPM_P2
2021/05/06 00:33:02;;;;;;;8.55;5.78;;;5.10;92.70;;;;;;5001220;28;20045;-83
2021/05/06 00:35:29;;;;;;;13.30;6.28;;;5.10;92.70;;;;;;5052041;28;20121;-84
2021/05/06 00:40:31;;;;;;;7.57;6.57;;;5.10;92.80;;;;;;4997932;28;20062;-84
2021/05/06 00:54:06;;;;;;;9.45;6.32;;;5.20;92.90;;;;;;4980509;28;20497;-84
2021/05/06 00:54:12;;;;;;;11.25;7.22;;;5.20;93.00;;;;;;4981074;28;20099;-84
2021/05/06 01:02:49;;;;;;;13.82;8.40;;;5.20;93.00;;;;;;5015151;28;20047;-84
2021/05/06 01:05:26;;;;;;;11.07;7.77;;;5.20;93.00;;;;;;4994503;28;20027;-83
2021/05/06 01:08:09;;;;;;;11.48;8.05;;;5.20;93.10;;;;;;5074432;28;20032;-84
2021/05/06 01:13:01;;;;;;;10.88;7.68;;;5.20;93.20;;;;;;4991815;28;20041;-83
2021/05/06 01:15:26;;;;;;;10.23;7.25;;;5.20;93.20;;;;;;4992039;28;20030;-83
2021/05/06 01:17:52;;;;;;;13.65;8.85;;;5.10;93.20;;;;;;4992991;28;20019;-83
2021/05/06 01:20:19;;;;;;;12.13;8.45;;;5.10;93.30;;;;;;4993706;28;20069;-83
2021/05/06 01:22:45;;;;;;;13.07;8.43;;;5.10;93.40;;;;;;4992616;28;20018;-83
2021/05/06 01:25:12;;;;;;;11.93;8.48;;;5.10;93.40;;;;;;4992942;28;20501;-83
2021/05/06 01:27:58;;;;;;;11.77;8.32;;;5.10;93.50;;;;;;4988769;28;20087;-82
2021/05/06 01:30:49;;;;;;;14.98;9.43;;;5.10;93.50;;;;;;4994095;28;20192;-82
2021/05/06 01:33:27;;;;;;;13.52;9.15;;;5.10;93.50;;;;;;4990305;28;20092;-84
2021/05/06 01:36:00;;;;;;;10.82;8.90;;;5.10;93.50;;;;;;4984281;28;20529;-83
2021/05/06 01:41:33;;;;;;;11.88;8.85;;;5.10;93.60;;;;;;4993228;28;20410;-83
2021/05/06 01:58:16;;;;;;;15.15;8.63;;;5.10;93.70;;;;;;4978290;28;20495;-83
2021/05/06 02:00:47;;;;;;;12.20;8.73;;;5.10;93.70;;;;;;4981844;28;20039;-84
2021/05/06 02:03:13;;;;;;;11.20;8.73;;;5.10;93.70;;;;;;4975587;28;20061;-83
2021/05/06 02:05:39;;;;;;;17.23;9.63;;;5.10;93.70;;;;;;4978081;28;20026;-83
2021/05/06 02:08:04;;;;;;;11.75;9.27;;;5.10;93.80;;;;;;4977658;28;20068;-83
2021/05/06 02:10:30;;;;;;;12.80;9.48;;;5.10;93.80;;;;;;4988139;28;20069;-83
2021/05/06 02:12:56;;;;;;;15.00;10.48;;;5.10;93.90;;;;;;4982214;28;20026;-83
2021/05/06 02:15:28;;;;;;;13.65;9.25;;;5.10;93.80;;;;;;5059864;28;20037;-83
2021/05/06 02:17:56;;;;;;;14.60;8.95;;;5.10;93.80;;;;;;4992642;28;20493;-83
2021/05/06 02:20:21;;;;;;;12.18;9.48;;;5.10;93.80;;;;;;4988662;28;20046;-83
2021/05/06 02:22:49;;;;;;;12.95;9.38;;;5.00;93.80;;;;;;4983568;28;20022;-83
2021/05/06 02:25:15;;;;;;;12.57;9.60;;;5.10;93.90;;;;;;4986839;28;20179;-83
2021/05/06 02:27:41;;;;;;;11.82;8.68;;;5.00;93.80;;;;;;4987742;28;20117;-84
2021/05/06 02:30:07;;;;;;;11.32;8.73;;;5.00;93.80;;;;;;4983186;28;20528;-83
2021/05/06 02:32:33;;;;;;;13.95;9.82;;;5.00;93.80;;;;;;4979144;28;20552;-83
2021/05/06 02:34:59;;;;;;;13.82;10.40;;;5.00;93.80;;;;;;4988482;28;20030;-83
2021/05/06 02:37:26;;;;;;;13.93;9.93;;;5.00;93.90;;;;;;5047119;28;20024;-83
2021/05/06 02:39:52;;;;;;;11.95;9.77;;;5.00;93.90;;;;;;4992166;28;20049;-83
2021/05/06 02:42:17;;;;;;;16.20;10.55;;;5.00;94.00;;;;;;4994497;28;20026;-84
2021/05/06 02:44:43;;;;;;;15.95;10.85;;;5.00;94.00;;;;;;4980518;28;20027;-83
2021/05/06 02:47:09;;;;;;;14.10;10.15;;;5.00;94.10;;;;;;4985775;28;20038;-83
2021/05/06 02:49:36;;;;;;;12.02;9.52;;;5.00;94.00;;;;;;4991407;28;20031;-83
2021/05/06 02:52:09;;;;;;;12.90;9.65;;;5.00;94.00;;;;;;4988629;28;20031;-83
2021/05/06 02:54:42;;;;;;;14.48;9.27;;;5.00;94.10;;;;;;4988642;28;20054;-83
2021/05/06 02:57:23;;;;;;;15.45;8.90;;;4.90;94.10;;;;;;4991325;28;20493;-83
2021/05/06 03:02:45;;;;;;;12.18;9.30;;;4.90;94.00;;;;;;4992450;28;20042;-83
2021/05/06 03:02:50;;;;;;;13.55;8.93;;;4.80;94.00;;;;;;4992010;28;20550;-83
2021/05/06 03:05:17;;;;;;;12.70;9.30;;;4.70;94.00;;;;;;4991475;28;20030;-83
2021/05/06 03:07:48;;;;;;;12.88;8.95;;;4.60;94.10;;;;;;4988496;28;20038;-84
2021/05/06 03:23:30;;;;;;;15.30;9.25;;;4.00;94.30;;;;;;5012910;28;20505;-83
2021/05/06 03:25:56;;;;;;;11.98;9.20;;;3.90;94.30;;;;;;4992391;28;20019;-82
2021/05/06 03:28:27;;;;;;;12.75;8.68;;;3.80;94.40;;;;;;4991223;28;20030;-83
2021/05/06 04:18:52;;;;;;;24.67;17.98;;;4.60;94.80;;;;;;4981418;28;20038;-83
2021/05/06 04:37:11;;;;;;;27.60;19.85;;;4.60;95.00;;;;;;4991113;28;20072;-84
2021/05/06 04:39:46;;;;;;;31.75;22.58;;;4.60;95.10;;;;;;4991205;28;20066;-84
2021/05/06 04:53:27;;;;;;;31.42;23.67;;;4.70;95.20;;;;;;4986297;28;20045;-83
2021/05/06 05:06:30;;;;;;;32.92;24.00;;;5.00;95.10;;;;;;4989125;28;20121;-84
2021/05/06 05:11:50;;;;;;;34.83;25.08;;;5.00;95.10;;;;;;4980237;28;20076;-83
2021/05/06 05:24:51;;;;;;;38.00;27.05;;;5.00;95.20;;;;;;4992006;28;20119;-84
2021/05/06 05:27:21;;;;;;;49.78;31.63;;;5.10;95.30;;;;;;4991593;28;20018;-84
2021/05/06 05:29:47;;;;;;;39.13;27.60;;;5.20;95.30;;;;;;4989762;28;20038;-83
2021/05/06 05:32:12;;;;;;;38.97;28.42;;;5.20;95.10;;;;;;5034806;28;20026;-84
2021/05/06 05:34:41;;;;;;;36.28;25.48;;;5.20;95.10;;;;;;4987325;28;20026;-84
2021/05/06 05:37:07;;;;;;;38.72;28.73;;;5.30;95.20;;;;;;4983812;28;20121;-84
2021/05/06 05:39:38;;;;;;;39.30;26.98;;;5.30;95.20;;;;;;4986720;28;21496;-85
2021/05/06 05:42:23;;;;;;;35.45;26.67;;;5.30;95.20;;;;;;4985111;28;20034;-85
2021/05/06 05:48:08;;;;;;;36.78;27.42;;;5.30;95.30;;;;;;4993213;28;20084;-86
2021/05/06 05:55:47;;;;;;;31.58;23.67;;;5.60;95.40;;;;;;4992254;28;20036;-85
2021/05/06 05:58:13;;;;;;;30.63;22.67;;;5.70;95.30;;;;;;4990423;28;20462;-86
2021/05/06 06:00:39;;;;;;;31.85;23.17;;;5.80;95.30;;;;;;4990815;28;20121;-86
2021/05/06 06:03:05;;;;;;;31.50;22.05;;;5.90;95.30;;;;;;4991876;28;20066;-86
2021/05/06 06:05:30;;;;;;;28.15;20.42;;;6.00;95.20;;;;;;5008106;28;20080;-86
2021/05/06 06:07:56;;;;;;;25.77;20.55;;;6.00;95.10;;;;;;4991399;28;20036;-86
2021/05/06 06:10:21;;;;;;;26.25;20.58;;;6.10;95.00;;;;;;4987138;28;20038;-86
2021/05/06 06:12:47;;;;;;;25.35;18.27;;;6.10;95.10;;;;;;4991924;28;20054;-86
2021/05/06 06:15:22;;;;;;;20.65;16.92;;;6.10;95.00;;;;;;4993027;28;20038;-85
2021/05/06 06:17:49;;;;;;;23.02;16.45;;;6.20;95.00;;;;;;4984739;28;20076;-85
2021/05/06 06:20:15;;;;;;;23.17;18.73;;;6.20;94.90;;;;;;4983504;28;20030;-85
2021/05/06 06:22:40;;;;;;;24.13;18.00;;;6.20;95.10;;;;;;4989247;28;20364;-85
2021/05/06 06:25:06;;;;;;;21.80;16.73;;;6.30;95.10;;;;;;4993243;28;20035;-85
2021/05/06 06:27:32;;;;;;;20.83;15.75;;;6.40;95.00;;;;;;4993442;28;20026;-86
2021/05/06 06:29:58;;;;;;;22.08;17.33;;;6.50;95.00;;;;;;4987509;28;20430;-85
2021/05/06 06:32:24;;;;;;;21.23;15.68;;;6.50;95.00;;;;;;4980740;28;20077;-85
2021/05/06 06:34:51;;;;;;;21.25;15.40;;;6.60;95.00;;;;;;4990617;28;20563;-85
2021/05/06 06:37:16;;;;;;;20.60;14.77;;;6.70;94.90;;;;;;4991118;28;20023;-85
2021/05/06 06:39:43;;;;;;;21.75;15.35;;;6.80;94.80;;;;;;4991157;28;20035;-85
2021/05/06 06:42:10;;;;;;;19.77;14.50;;;6.80;94.70;;;;;;5000574;28;20026;-84
2021/05/06 06:44:37;;;;;;;18.85;14.30;;;6.90;94.70;;;;;;4991564;28;20470;-86
2021/05/06 06:47:07;;;;;;;18.17;13.70;;;6.90;94.60;;;;;;4989946;28;20034;-85
2021/05/06 06:49:37;;;;;;;16.40;13.23;;;7.00;94.50;;;;;;4987777;28;20102;-85
2021/05/06 06:52:05;;;;;;;15.13;12.68;;;7.10;94.40;;;;;;4980921;28;20027;-86
2021/05/06 06:54:30;;;;;;;14.93;12.90;;;7.20;94.30;;;;;;4988603;28;20061;-85
2021/05/06 06:56:57;;;;;;;17.13;13.77;;;7.20;94.10;;;;;;4989696;28;20025;-85
2021/05/06 06:59:22;;;;;;;17.48;13.82;;;7.30;94.20;;;;;;4991293;28;20044;-86
2021/05/06 07:01:48;;;;;;;15.07;11.95;;;7.40;94.10;;;;;;4992752;28;20085;-86
2021/05/06 07:04:14;;;;;;;16.48;13.15;;;7.50;94.10;;;;;;4992574;28;20057;-86
2021/05/06 07:06:40;;;;;;;15.15;13.00;;;7.60;93.80;;;;;;5013673;28;20020;-85
2021/05/06 07:09:08;;;;;;;19.48;14.45;;;7.60;93.40;;;;;;4991434;28;20074;-86
2021/05/06 07:11:34;;;;;;;18.88;14.20;;;7.60;93.50;;;;;;4986017;28;20497;-86
2021/05/06 07:13:59;;;;;;;18.88;13.90;;;7.80;93.70;;;;;;4990546;28;20065;-85
2021/05/06 07:16:25;;;;;;;16.85;13.30;;;7.90;93.60;;;;;;4991664;28;20041;-85
2021/05/06 07:18:50;;;;;;;18.33;13.43;;;8.10;93.50;;;;;;4989411;28;20080;-85
2021/05/06 07:21:16;;;;;;;20.15;13.05;;;8.20;93.10;;;;;;4990638;28;20036;-86
2021/05/06 07:23:41;;;;;;;19.58;14.48;;;8.10;93.00;;;;;;4991640;28;20030;-85
2021/05/06 07:26:07;;;;;;;17.02;13.65;;;8.20;93.00;;;;;;4986034;28;20053;-86
2021/05/06 07:28:38;;;;;;;17.35;13.13;;;8.20;92.80;;;;;;4983870;28;20026;-85
2021/05/06 07:31:05;;;;;;;18.42;14.10;;;8.30;92.90;;;;;;4985333;28;20027;-85
2021/05/06 07:33:32;;;;;;;19.98;14.43;;;8.40;92.90;;;;;;4991160;28;20022;-86
2021/05/06 07:35:58;;;;;;;16.85;13.70;;;8.70;93.00;;;;;;4991479;28;20537;-85
2021/05/06 07:38:26;;;;;;;15.30;12.40;;;9.00;92.50;;;;;;4990675;28;20034;-85
2021/05/06 07:40:52;;;;;;;16.67;13.30;;;9.10;92.00;;;;;;4991467;28;20129;-85
2021/05/06 07:43:17;;;;;;;15.50;11.23;;;9.20;91.90;;;;;;4991318;28;20065;-85
2021/05/06 07:45:44;;;;;;;18.02;12.00;;;9.30;91.60;;;;;;4991455;28;20118;-85
2021/05/06 07:48:09;;;;;;;21.23;13.00;;;9.10;91.30;;;;;;4991361;28;20023;-86
2021/05/06 07:50:35;;;;;;;16.10;12.07;;;9.10;91.50;;;;;;4985122;28;20129;-85
2021/05/06 07:53:07;;;;;;;16.55;11.60;;;9.20;91.50;;;;;;4980940;28;20494;-84
2021/05/06 07:55:33;;;;;;;14.07;10.85;;;9.30;91.30;;;;;;4991513;28;20027;-85
2021/05/06 07:57:59;;;;;;;17.30;12.50;;;9.40;90.80;;;;;;4990400;28;20167;-86
2021/05/06 08:00:26;;;;;;;14.25;10.70;;;9.40;90.60;;;;;;4989101;28;20114;-85
2021/05/06 08:02:52;;;;;;;16.40;11.68;;;9.40;90.50;;;;;;4984748;28;20050;-86
2021/05/06 08:05:17;;;;;;;13.50;10.88;;;9.40;90.40;;;;;;4989695;28;20509;-86
2021/05/06 08:07:43;;;;;;;14.13;10.55;;;9.50;90.20;;;;;;4981342;28;20034;-85
2021/05/06 08:10:10;;;;;;;16.42;11.93;;;9.50;90.00;;;;;;4989557;28;20030;-86
2021/05/06 08:12:36;;;;;;;14.57;12.00;;;9.50;88.80;;;;;;4991638;28;20402;-85
2021/05/06 08:15:07;;;;;;;15.68;11.68;;;9.60;89.20;;;;;;4990976;28;20041;-85
2021/05/06 08:17:32;;;;;;;16.33;11.82;;;9.70;88.50;;;;;;4991783;28;20432;-86
2021/05/06 08:19:58;;;;;;;16.80;12.80;;;9.70;88.00;;;;;;4989293;28;20088;-86
2021/05/06 08:22:24;;;;;;;14.65;11.85;;;9.70;87.20;;;;;;4976248;28;20390;-86
2021/05/06 08:24:50;;;;;;;14.43;11.50;;;9.60;87.00;;;;;;4983964;28;20031;-86
2021/05/06 08:27:16;;;;;;;14.20;11.45;;;9.50;86.50;;;;;;4990566;28;20019;-86
2021/05/06 08:29:42;;;;;;;14.20;11.43;;;9.50;86.10;;;;;;4989264;28;20460;-85
2021/05/06 08:32:07;;;;;;;15.38;12.55;;;9.60;86.50;;;;;;4992392;28;20117;-86
2021/05/06 08:34:33;;;;;;;17.83;13.00;;;9.70;87.00;;;;;;4987605;28;20031;-86
2021/05/06 08:36:59;;;;;;;17.58;13.35;;;10.00;86.40;;;;;;4987921;28;20027;-86
2021/05/06 08:39:24;;;;;;;16.13;12.02;;;10.20;86.00;;;;;;4990031;28;20037;-86
2021/05/06 08:41:50;;;;;;;15.32;11.82;;;10.50;85.80;;;;;;4986898;28;20105;-86
2021/05/06 08:44:18;;;;;;;15.90;12.63;;;10.80;84.90;;;;;;4986044;28;20030;-86
2021/05/06 08:47:01;;;;;;;13.35;10.52;;;10.80;83.60;;;;;;4991411;28;20481;-86
2021/05/06 08:49:27;;;;;;;12.23;10.93;;;10.90;83.80;;;;;;4987030;28;20040;-86
2021/05/06 08:51:53;;;;;;;14.02;10.68;;;10.80;81.50;;;;;;4992178;28;20101;-85
2021/05/06 08:54:19;;;;;;;13.68;11.15;;;10.60;81.50;;;;;;4992089;28;20054;-86
2021/05/06 08:56:45;;;;;;;12.60;9.98;;;10.50;81.60;;;;;;4990791;28;20495;-85
2021/05/06 08:59:10;;;;;;;17.15;11.15;;;10.40;81.80;;;;;;4981609;28;20038;-86
2021/05/06 09:01:36;;;;;;;15.88;11.05;;;10.40;81.80;;;;;;4989531;28;20030;-86
2021/05/06 09:04:01;;;;;;;12.13;10.13;;;10.40;81.10;;;;;;5023568;28;20052;-86
2021/05/06 09:06:27;;;;;;;15.40;11.05;;;10.30;81.00;;;;;;4986365;28;20045;-86
2021/05/06 09:08:56;;;;;;;12.43;9.30;;;10.30;80.50;;;;;;4991712;28;20026;-86
2021/05/06 09:11:37;;;;;;;11.45;8.75;;;10.30;80.70;;;;;;4992343;28;20031;-86
2021/05/06 09:14:07;;;;;;;12.98;10.43;;;10.30;80.30;;;;;;4991426;28;20057;-86
2021/05/06 09:16:41;;;;;;;13.07;11.25;;;10.30;80.10;;;;;;4995458;28;20107;-86
2021/05/06 09:19:12;;;;;;;15.80;11.75;;;10.20;79.30;;;;;;4994560;28;20596;-86
2021/05/06 09:21:42;;;;;;;16.33;10.75;;;10.20;79.90;;;;;;4993666;28;20077;-86
2021/05/06 09:24:27;;;;;;;14.35;11.38;;;10.10;80.00;;;;;;4990539;28;20091;-86
2021/05/06 09:26:55;;;;;;;14.48;10.38;;;10.20;80.60;;;;;;4985318;28;20035;-86
2021/05/06 09:29:37;;;;;;;12.55;10.05;;;10.30;80.80;;;;;;4991664;28;20038;-86
2021/05/06 09:32:10;;;;;;;12.07;9.95;;;10.50;79.40;;;;;;4979189;28;20035;-86
2021/05/06 09:34:37;;;;;;;13.00;10.63;;;10.50;79.20;;;;;;4989972;28;20596;-86
2021/05/06 09:37:03;;;;;;;14.82;10.18;;;10.60;78.80;;;;;;5008943;28;20056;-86
2021/05/06 09:39:29;;;;;;;13.43;9.82;;;10.70;79.10;;;;;;4991200;28;20121;-86
2021/05/06 09:42:07;;;;;;;13.68;11.68;;;10.80;78.40;;;;;;4991650;28;20062;-86
2021/05/06 09:44:53;;;;;;;11.07;9.35;;;10.80;78.10;;;;;;4990519;28;20030;-86
2021/05/06 09:47:19;;;;;;;12.27;9.45;;;10.90;77.70;;;;;;4993625;28;20022;-86
2021/05/06 09:49:45;;;;;;;12.02;9.48;;;10.70;78.40;;;;;;4993130;28;20083;-86
2021/05/06 09:52:11;;;;;;;12.88;9.77;;;10.60;77.60;;;;;;4993728;28;20061;-86
2021/05/06 09:54:46;;;;;;;13.02;10.32;;;10.40;78.10;;;;;;4993778;28;20038;-86
2021/05/06 09:57:11;;;;;;;13.30;10.68;;;10.30;78.40;;;;;;4992628;28;20492;-86
2021/05/06 09:59:39;;;;;;;13.38;10.57;;;10.30;78.40;;;;;;4982952;28;20043;-86
2021/05/06 10:02:09;;;;;;;14.90;11.90;;;10.30;78.40;;;;;;4991992;28;20019;-86
2021/05/06 10:04:35;;;;;;;14.00;10.98;;;10.30;78.30;;;;;;4991911;28;20050;-86
2021/05/06 10:07:22;;;;;;;15.02;11.75;;;10.40;78.30;;;;;;4991262;28;20478;-86
2021/05/06 10:09:50;;;;;;;13.65;11.20;;;10.40;78.60;;;;;;4981885;28;20018;-87
2021/05/06 10:12:16;;;;;;;12.02;10.73;;;10.40;78.50;;;;;;4993328;28;20547;-86
2021/05/06 10:14:42;;;;;;;13.80;11.20;;;10.40;78.40;;;;;;4988411;28;20034;-86
2021/05/06 10:17:08;;;;;;;16.15;10.98;;;10.30;78.40;;;;;;4993815;28;20489;-86
2021/05/06 10:19:35;;;;;;;15.20;10.88;;;10.30;78.50;;;;;;4994374;28;20027;-86
2021/05/06 10:22:01;;;;;;;10.88;8.82;;;10.20;78.20;;;;;;4989258;28;20054;-85
2021/05/06 10:24:29;;;;;;;9.20;8.05;;;10.10;77.90;;;;;;4991689;28;20054;-86
2021/05/06 10:26:55;;;;;;;11.32;8.00;;;10.00;76.80;;;;;;4975154;28;20023;-86
2021/05/06 10:29:21;;;;;;;10.95;8.00;;;9.80;76.70;;;;;;4977099;28;20027;-86
2021/05/06 10:31:48;;;;;;;10.20;8.32;;;9.60;76.90;;;;;;4993273;28;20030;-86
2021/05/06 10:34:13;;;;;;;9.73;6.95;;;9.50;77.00;;;;;;4993612;28;20026;-86
2021/05/06 10:36:40;;;;;;;10.30;7.43;;;9.40;77.50;;;;;;4989974;28;20034;-86
2021/05/06 10:39:13;;;;;;;8.32;7.22;;;9.40;78.10;;;;;;4994908;28;20053;-85
2021/05/06 10:41:39;;;;;;;11.98;8.52;;;9.40;78.30;;;;;;4993004;28;20135;-86
2021/05/06 10:44:09;;;;;;;10.70;8.10;;;9.50;78.30;;;;;;4992481;28;20045;-86
2021/05/06 10:46:46;;;;;;;9.50;7.45;;;9.50;78.40;;;;;;4992282;28;20068;-86
2021/05/06 10:49:12;;;;;;;7.60;6.18;;;9.70;78.50;;;;;;4985979;28;20454;-86
2021/05/06 10:51:48;;;;;;;6.32;5.32;;;9.80;78.50;;;;;;4985124;28;20081;-86
2021/05/06 10:54:27;;;;;;;6.40;5.75;;;10.00;77.50;;;;;;4979660;28;20096;-86
2021/05/06 10:56:58;;;;;;;6.45;5.18;;;10.30;77.30;;;;;;4982628;28;20019;-86
2021/05/06 10:59:25;;;;;;;7.18;5.57;;;10.50;76.60;;;;;;4992377;28;20030;-86
2021/05/06 11:01:51;;;;;;;6.50;5.38;;;10.70;76.10;;;;;;4989702;28;20433;-85
2021/05/06 11:04:31;;;;;;;7.43;6.30;;;10.80;75.10;;;;;;4992640;28;20056;-86
2021/05/06 11:07:13;;;;;;;9.18;7.03;;;11.10;75.10;;;;;;4994682;28;20049;-85
2021/05/06 11:09:48;;;;;;;8.90;7.78;;;11.40;74.50;;;;;;4994320;28;20026;-86
2021/05/06 11:12:16;;;;;;;9.18;8.10;;;11.60;74.50;;;;;;4974166;28;20062;-86
2021/05/06 11:17:46;;;;;;;8.98;8.13;;;11.90;72.30;;;;;;4993878;28;20030;-85
2021/05/06 11:20:12;;;;;;;8.02;7.22;;;12.00;72.30;;;;;;4993141;28;20054;-85
2021/05/06 11:22:44;;;;;;;11.93;8.30;;;12.10;72.20;;;;;;4989578;28;20031;-85
2021/05/06 11:25:32;;;;;;;8.75;7.93;;;12.30;71.30;;;;;;4980776;28;20023;-85
2021/05/06 11:28:00;;;;;;;8.18;7.38;;;12.40;70.60;;;;;;4993501;28;20030;-85
2021/05/06 11:30:37;;;;;;;9.68;8.55;;;12.50;69.90;;;;;;4978335;28;20056;-85
2021/05/06 11:33:21;;;;;;;8.77;7.45;;;12.70;69.10;;;;;;4974099;28;20030;-85
2021/05/06 11:36:11;;;;;;;9.48;8.52;;;12.90;69.10;;;;;;4976391;28;20018;-86
2021/05/06 11:38:39;;;;;;;9.02;8.13;;;13.10;68.60;;;;;;4993480;28;20041;-85
2021/05/06 11:41:07;;;;;;;8.45;7.50;;;13.20;68.10;;;;;;4975068;28;20035;-85
2021/05/06 11:43:34;;;;;;;9.32;8.20;;;13.40;68.20;;;;;;5006274;28;20482;-85
2021/05/06 11:46:03;;;;;;;8.82;7.93;;;13.50;67.30;;;;;;4989794;28;20117;-85
2021/05/06 11:48:36;;;;;;;11.25;9.55;;;13.70;67.40;;;;;;5000414;28;20022;-85
2021/05/06 11:51:02;;;;;;;9.50;8.60;;;13.90;67.40;;;;;;5000086;28;20018;-85
2021/05/06 11:53:28;;;;;;;9.68;8.02;;;14.10;66.60;;;;;;4984120;28;20027;-86
2021/05/06 11:55:53;;;;;;;7.85;7.15;;;14.10;65.60;;;;;;4992557;28;20033;-86
2021/05/06 11:58:28;;;;;;;7.32;6.57;;;14.10;65.40;;;;;;4992284;28;20026;-85
2021/05/06 12:00:55;;;;;;;7.78;6.90;;;14.20;65.00;;;;;;4987850;28;20034;-85
2021/05/06 12:03:32;;;;;;;6.07;5.30;;;14.10;63.90;;;;;;4991658;28;20043;-85
2021/05/06 12:05:59;;;;;;;6.47;5.93;;;14.10;63.60;;;;;;4977779;28;20026;-85
2021/05/06 12:08:32;;;;;;;7.75;6.70;;;14.00;63.10;;;;;;4993650;28;20117;-86
2021/05/06 12:11:02;;;;;;;8.77;6.55;;;13.90;62.20;;;;;;4993005;28;20098;-85
2021/05/06 12:13:34;;;;;;;7.68;6.80;;;13.90;62.30;;;;;;4976157;28;20035;-85
2021/05/06 12:16:14;;;;;;;7.35;6.65;;;14.00;62.50;;;;;;4973325;28;20027;-85
2021/05/06 12:18:41;;;;;;;7.43;6.72;;;14.20;63.00;;;;;;4974342;28;20076;-88
2021/05/06 12:21:07;;;;;;;7.82;6.28;;;14.20;62.60;;;;;;4993626;28;20034;-87
2021/05/06 12:23:34;;;;;;;8.38;7.03;;;14.30;62.60;;;;;;4984521;28;20071;-87
2021/05/06 12:26:00;;;;;;;6.95;6.13;;;14.60;62.00;;;;;;5000200;28;20066;-87
2021/05/06 12:28:26;;;;;;;5.95;4.65;;;14.80;60.40;;;;;;4992556;28;20026;-87
2021/05/06 12:31:00;;;;;;;4.95;3.10;;;14.70;58.90;;;;;;4989555;28;20034;-87
2021/05/06 12:33:32;;;;;;;4.68;3.70;;;14.20;59.20;;;;;;4986296;28;20019;-86
2021/05/06 12:35:58;;;;;;;5.68;2.90;;;13.50;59.40;;;;;;4983499;28;20034;-87
2021/05/06 12:38:24;;;;;;;4.82;3.65;;;12.90;61.20;;;;;;5002264;28;20020;-86
2021/05/06 12:40:52;;;;;;;5.43;3.97;;;12.40;63.10;;;;;;4983834;28;20109;-87
2021/05/06 12:43:27;;;;;;;6.85;4.57;;;12.00;64.40;;;;;;4992287;28;20386;-87
2021/05/06 12:46:10;;;;;;;5.97;4.65;;;11.80;65.30;;;;;;4980686;28;20027;-88
2021/05/06 12:48:44;;;;;;;5.80;4.07;;;11.60;66.10;;;;;;4993535;28;20398;-87
2021/05/06 12:51:12;;;;;;;4.78;4.32;;;11.60;67.10;;;;;;4988693;28;20035;-88
2021/05/06 12:54:00;;;;;;;7.00;4.70;;;11.40;66.40;;;;;;4978295;28;20035;-88
2021/05/06 12:56:28;;;;;;;4.70;4.15;;;11.40;67.80;;;;;;4985787;28;20022;-87
2021/05/06 12:58:54;;;;;;;7.50;4.75;;;11.50;68.40;;;;;;4982951;28;20026;-88
2021/05/06 13:01:31;;;;;;;6.05;4.57;;;11.60;68.00;;;;;;4990582;28;20027;-88
2021/05/06 13:04:02;;;;;;;8.70;4.63;;;11.60;68.00;;;;;;4984738;28;20046;-88
2021/05/06 13:06:32;;;;;;;15.30;12.40;;;11.80;68.80;;;;;;4993317;28;20034;-89
2021/05/06 13:08:59;;;;;;;26.80;17.33;;;11.90;67.80;;;;;;4993662;28;20494;-88
2021/05/06 13:11:25;;;;;;;8.65;6.80;;;11.90;67.70;;;;;;4984523;28;20046;-89
2021/05/06 13:13:53;;;;;;;8.70;5.45;;;12.00;67.70;;;;;;4979122;28;20058;-88
2021/05/06 13:16:46;;;;;;;7.75;4.80;;;12.10;67.40;;;;;;4973860;28;20027;-87
2021/05/06 13:19:16;;;;;;;5.65;4.53;;;12.00;66.90;;;;;;4975017;28;20027;-87
2021/05/06 13:21:50;;;;;;;6.80;4.90;;;11.70;66.70;;;;;;4974904;28;20039;-88
2021/05/06 13:24:16;;;;;;;5.50;4.00;;;11.60;67.70;;;;;;4992792;28;20041;-87
2021/05/06 13:26:43;;;;;;;6.93;5.05;;;11.50;68.50;;;;;;4987567;28;20042;-88
2021/05/06 13:29:13;;;;;;;8.25;6.30;;;11.40;67.70;;;;;;4985863;28;20515;-88
2021/05/06 13:31:40;;;;;;;8.90;6.35;;;11.20;67.90;;;;;;4992589;28;20040;-88
2021/05/06 13:34:16;;;;;;;7.78;5.97;;;10.90;68.20;;;;;;4993294;28;20032;-87
2021/05/06 13:36:48;;;;;;;6.90;6.28;;;10.80;68.90;;;;;;4989179;28;20062;-87
2021/05/06 13:39:19;;;;;;;8.73;6.90;;;10.70;69.60;;;;;;4975494;28;20040;-86
2021/05/06 13:41:46;;;;;;;8.00;6.82;;;10.60;70.20;;;;;;4985241;28;20035;-86
2021/05/06 13:44:20;;;;;;;8.95;7.57;;;10.70;71.70;;;;;;4989066;28;20154;-87
2021/05/06 13:46:54;;;;;;;8.43;6.45;;;10.90;72.50;;;;;;5006343;28;20027;-88
2021/05/06 13:49:21;;;;;;;9.20;7.05;;;11.10;72.50;;;;;;4992819;28;20054;-87
2021/05/06 13:51:47;;;;;;;9.23;7.93;;;11.20;72.60;;;;;;4991124;28;20088;-87
2021/05/06 13:54:13;;;;;;;8.30;6.53;;;11.40;72.90;;;;;;5014207;28;20081;-86
2021/05/06 13:56:38;;;;;;;7.47;6.68;;;11.50;72.50;;;;;;5013889;28;20026;-87
2021/05/06 13:59:04;;;;;;;9.05;7.20;;;11.60;71.90;;;;;;4991918;28;20026;-86
2021/05/06 14:01:30;;;;;;;8.82;7.88;;;11.70;71.80;;;;;;4991737;28;20035;-87
2021/05/06 14:03:58;;;;;;;7.45;6.68;;;11.70;71.90;;;;;;4994385;28;20046;-87
2021/05/06 14:06:26;;;;;;;7.35;6.40;;;11.80;71.10;;;;;;4990916;28;20034;-87
2021/05/06 14:08:52;;;;;;;9.70;7.05;;;12.00;71.10;;;;;;4992310;28;20030;-87
2021/05/06 14:11:18;;;;;;;7.72;6.82;;;12.00;70.10;;;;;;4988732;28;20030;-87
2021/05/06 14:13:44;;;;;;;7.65;6.85;;;11.90;68.50;;;;;;4978890;28;20018;-87
2021/05/06 14:16:10;;;;;;;10.48;6.38;;;11.70;68.20;;;;;;4999572;28;20084;-87
2021/05/06 14:18:36;;;;;;;7.03;5.50;;;11.80;68.00;;;;;;5003928;28;20113;-86
2021/05/06 14:21:03;;;;;;;7.72;6.85;;;11.90;68.00;;;;;;4990104;28;20074;-87
2021/05/06 14:23:32;;;;;;;7.63;5.63;;;11.90;66.70;;;;;;5007380;28;20089;-87
2021/05/06 14:25:58;;;;;;;7.00;5.60;;;12.00;66.90;;;;;;4989371;28;20031;-87
2021/05/06 14:28:24;;;;;;;6.43;5.25;;;12.00;66.70;;;;;;4981156;28;20033;-87
2021/05/06 14:30:49;;;;;;;9.30;6.82;;;12.00;66.50;;;;;;4991814;28;20458;-87
2021/05/06 14:33:15;;;;;;;5.97;5.22;;;12.00;66.10;;;;;;4993355;28;20393;-87
2021/05/06 14:35:40;;;;;;;7.35;6.05;;;12.00;66.40;;;;;;4990285;28;20029;-86
2021/05/06 14:38:10;;;;;;;9.80;6.22;;;12.00;66.40;;;;;;4981644;28;20049;-87
2021/05/06 14:40:37;;;;;;;7.03;6.32;;;12.10;66.20;;;;;;4988822;28;20039;-87
2021/05/06 14:43:03;;;;;;;8.60;7.78;;;12.10;65.60;;;;;;4992949;28;20505;-88
2021/05/06 14:45:29;;;;;;;9.00;6.75;;;12.10;66.20;;;;;;4991636;28;20023;-87
2021/05/06 14:47:54;;;;;;;9.35;6.85;;;12.10;66.30;;;;;;4981810;28;20375;-87
2021/05/06 14:50:20;;;;;;;7.55;6.15;;;12.10;65.90;;;;;;5010563;28;20060;-87
2021/05/06 14:52:46;;;;;;;7.20;6.03;;;12.00;65.80;;;;;;4979785;28;20034;-87
2021/05/06 14:55:12;;;;;;;6.85;6.15;;;12.00;65.70;;;;;;4981163;28;20043;-88
2021/05/06 14:57:38;;;;;;;8.75;6.57;;;11.80;65.60;;;;;;4993502;28;20035;-87
2021/05/06 15:00:06;;;;;;;6.55;5.45;;;11.70;65.90;;;;;;4992485;28;20042;-87
2021/05/06 15:02:32;;;;;;;7.47;6.50;;;11.70;66.00;;;;;;4978305;28;20096;-87
2021/05/06 15:04:57;;;;;;;6.80;5.70;;;11.70;66.30;;;;;;4990000;28;20034;-88
2021/05/06 15:07:23;;;;;;;7.85;6.00;;;11.60;66.10;;;;;;4994403;28;20061;-88
2021/05/06 15:09:49;;;;;;;7.10;6.07;;;11.60;66.20;;;;;;4990135;28;20022;-88
2021/05/06 15:12:14;;;;;;;8.15;5.47;;;11.60;66.70;;;;;;4986268;28;20029;-89
2021/05/06 15:14:40;;;;;;;8.98;6.07;;;11.70;66.60;;;;;;4988218;28;20049;-87
2021/05/06 15:17:05;;;;;;;8.65;6.43;;;11.70;66.20;;;;;;4983004;28;20065;-88
2021/05/06 15:19:31;;;;;;;6.45;5.22;;;11.80;66.80;;;;;;4990468;28;20030;-88
2021/05/06 15:21:56;;;;;;;8.55;5.97;;;11.90;66.40;;;;;;4994499;28;20037;-89
2021/05/06 15:24:22;;;;;;;6.15;5.22;;;12.00;66.30;;;;;;4993108;28;20033;-89
2021/05/06 15:26:47;;;;;;;5.60;4.60;;;12.10;65.90;;;;;;4991941;28;20026;-89
2021/05/06 15:29:13;;;;;;;8.93;6.03;;;12.00;66.00;;;;;;4980217;28;20030;-88
2021/05/06 15:31:38;;;;;;;6.57;5.18;;;12.00;64.90;;;;;;4993963;28;20069;-87
2021/05/06 15:34:04;;;;;;;6.63;4.90;;;11.90;64.80;;;;;;4993107;28;20095;-88
2021/05/06 15:36:30;;;;;;;6.90;5.43;;;11.90;65.80;;;;;;4993265;28;20478;-87
2021/05/06 15:39:00;;;;;;;5.70;4.65;;;11.90;64.70;;;;;;4988990;28;20053;-88
2021/05/06 15:41:26;;;;;;;8.05;5.18;;;11.80;63.50;;;;;;4982491;28;20490;-88
2021/05/06 15:43:52;;;;;;;6.97;4.53;;;11.70;63.50;;;;;;4989253;28;20038;-87
2021/05/06 15:46:18;;;;;;;5.28;3.42;;;11.70;64.10;;;;;;4991728;28;20032;-88
2021/05/06 15:48:44;;;;;;;4.80;4.40;;;11.80;64.00;;;;;;4975665;28;20030;-88
2021/05/06 15:51:09;;;;;;;4.53;4.13;;;11.80;63.60;;;;;;4981059;28;20037;-87
2021/05/06 15:53:35;;;;;;;4.80;4.38;;;11.90;63.70;;;;;;4988806;28;20592;-88
2021/05/06 15:56:01;;;;;;;6.38;4.47;;;11.90;63.20;;;;;;4981288;28;20141;-88
2021/05/06 15:58:27;;;;;;;5.43;4.88;;;11.80;64.20;;;;;;4991383;28;20026;-88
2021/05/06 16:00:56;;;;;;;7.07;4.88;;;11.80;63.40;;;;;;4989030;28;20098;-88